Alma Center, Wisconsin
Current Conditions -  °F | °C
As of 3:35 PM on Saturday 25 Oct 2014 (Local Time) from KBCK Reporting Station
Clear Clear  
Wind Chill: 18°   Ceiling: Unl
Heat Index: 18°   Visibility: 10mi
Dew Point: -4°   Wind: 17mph
Humidity: 22%   Direction: 280°W
Pressure: 29.96"   Gusts: 23mph
Location:  44.44°N, 90.91°W
Report Text: KBCK 252035Z AUTO 28015G20KT 10SM CLR 18/M04 A2996 RMK AO2 T01831039
Loading
Personal Weather Stations






























Interactive Weather Map New forecast layout! Learn more

10-Day Weather Forecast

Advertisements
Track Severe Weather on mobile